Airport View

Enter AWOS ICAO identifier for current METAR.

ex. KFNL

KTYR 251053Z AUTO 10005KT 6SM BR BKN006 OVC016 12/11 A2998 RMK AO2 SLP149 T01220111

25 Oct 2020 11:04

Phone: 903-535-9105

Other Area AWOS: KJDD - KF44 - KJSO - KRFI

TAF KTYR 250541Z 2506/2606 VRB03KT P6SM BKN010 OVC030 FM251000 11005KT 6SM BR OVC010 TEMPO 2510/2513 6SM BR OVC007 FM251300 12005KT P6SM OVC015 FM252100 15010KT P6SM BKN025 FM260200 11007KT P6SM OVC012